ADDS METAR Data INFO
IDs: Format: Raw Decoded Include TAF

Data at: 0433 UTC 21 Nov 2017

KTYR 210353Z AUTO 17006KT 10SM CLR 10/03 A3000 RMK AO2 SLP157 T01000033
KTYR 210253Z 16006KT 10SM CLR 10/03 A3000 RMK AO2 SLP158 T01000028 58009
KTYR 210153Z 16007KT 10SM CLR 10/02 A3001 RMK AO2 SLP163 T01000022
KTYR 210053Z 15006KT 10SM CLR 09/02 A3002 RMK AO2 SLP167 T00940022
KTYR 202353Z 15005KT 10SM CLR 11/01 A3003 RMK AO2 SLP168 T01110011 10172 20111 56008
KTYR 202253Z 18008KT 10SM CLR 15/M01 A3003 RMK AO2 SLP169 T01501006
KTYR 202153Z 20012KT 10SM CLR 17/M01 A3004 RMK AO2 SLP170 T01721006
KTYR 202053Z 21010KT 10SM CLR 17/M01 A3005 RMK AO2 SLP175 T01721006 56037
KTYR 201953Z 19011KT 10SM CLR 17/M01 A3007 RMK AO2 SLP182 T01671011
KTYR 201900Z 21012KT 10SM FEW002 16/M01 A3011 RMK AO2 T01611011
KTYR 201853Z 19008KT 10SM CLR 16/M02 A3012 RMK AO2 SLP198 T01611017
KTYR 201753Z 17011KT 10SM CLR 16/M01 A3016 RMK AO2 SLP213 T01561011 10161 20022 58024
KTYR 201653Z 19010KT 10SM CLR 14/M01 A3020 RMK AO2 SLP226 T01441006
KTYR 201553Z 17010KT 10SM CLR 12/01 A3023 RMK AO2 SLP234 T01220011
KTYR 201453Z 17005KT 10SM CLR 09/02 A3024 RMK AO2 SLP238 T00890022 51015
KTYR 201353Z 14004KT 10SM CLR 06/02 A3022 RMK AO2 SLP233 T00560022
KTYR 201253Z 18003KT 10SM CLR 03/01 A3021 RMK AO2 SLP230 T00330006
KTYR 201153Z AUTO 17006KT 10SM CLR 03/01 A3019 RMK AO2 SLP223 T00280006 10056 20028 55004
KTYR 201053Z AUTO 17004KT 10SM CLR 03/01 A3019 RMK AO2 SLP222 T00280006
KTYR 200953Z AUTO 16003KT 10SM CLR 04/01 A3020 RMK AO2 SLP224 T00390011
KTYR 200853Z AUTO 00000KT 10SM CLR 04/02 A3020 RMK AO2 SLP226 T00390017 58009
KTYR 200753Z AUTO 00000KT 10SM CLR 04/02 A3022 RMK AO2 SLP230 T00390022
KTYR 200653Z AUTO 00000KT 10SM CLR 04/02 A3023 RMK AO2 SLP234 T00440017
KTYR 200553Z AUTO 00000KT 10SM CLR 04/02 A3023 RMK AO2 SLP235 T00440017 10111 20039 401670028 58005
KTYR 200453Z AUTO 00000KT 10SM CLR 06/02 A3024 RMK AO2 SLP240 T00610022
KTYR 200353Z AUTO 00000KT 10SM CLR 07/02 A3025 RMK AO2 SLP241 T00670022
KTYR 200253Z 00000KT 10SM CLR 08/02 A3024 RMK AO2 SLP241 T00780017 51006
KTYR 200153Z 00000KT 9SM CLR 08/01 A3024 RMK AO2 SLP241 T00780011
KTYR 200053Z 00000KT 9SM CLR 09/M01 A3024 RMK AO2 SLP239 T00941011
KTYR 192353Z 00000KT 9SM CLR 11/M01 A3023 RMK AO2 SLP235 T01111006 10167 20106 56004
KTYR 192253Z 36004KT 10SM CLR 14/M03 A3023 RMK AO2 SLP235 T01441028
KTYR 192153Z 04006KT 10SM CLR 16/M05 A3023 RMK AO2 SLP236 T01611050
KTYR 192053Z 02007KT 10SM CLR 17/M04 A3024 RMK AO2 SLP238 T01671044 56029
KTYR 191953Z 02012G16KT 10SM CLR 17/M04 A3026 RMK AO2 SLP245 T01671044
KTYR 191853Z 02009KT 10SM CLR 16/M04 A3029 RMK AO2 SLP255 T01611044
KTYR 191753Z 04009KT 10SM CLR 16/M05 A3033 RMK AO2 SLP267 T01561050 10156 20028 58011
KTYR 191653Z 02009KT 10SM CLR 14/M04 A3036 RMK AO2 SLP279 T01441039